createdAt,value
2016-10-17T00:00:58.413Z,1007.5
2016-10-17T00:02:08.708Z,1007.53
2016-10-17T00:03:19.009Z,1007.52
2016-10-17T00:04:28.991Z,1007.54
2016-10-17T00:05:38.975Z,1007.49
2016-10-17T00:06:48.649Z,1007.52
2016-10-17T00:07:58.947Z,1007.48
2016-10-17T00:09:09.234Z,1007.49
2016-10-17T00:10:19.204Z,1007.48
2016-10-17T00:11:29.499Z,1007.47
2016-10-17T00:12:39.782Z,1007.53
2016-10-17T00:13:50.059Z,1007.54
2016-10-17T00:15:00.351Z,1007.54
2016-10-17T00:16:10.636Z,1007.52
2016-10-17T00:17:20.619Z,1007.52
2016-10-17T00:18:30.899Z,1007.55
2016-10-17T00:19:41.178Z,1007.58
2016-10-17T00:20:51.456Z,1007.55
2016-10-17T00:22:01.412Z,1007.54
2016-10-17T00:23:11.717Z,1007.5
2016-10-17T00:24:22.014Z,1007.57
2016-10-17T00:25:32.298Z,1007.55
2016-10-17T00:26:42.575Z,1007.56
2016-10-17T00:27:52.272Z,1007.56
2016-10-17T00:29:02.239Z,1007.55
2016-10-17T00:30:12.205Z,1007.56
2016-10-17T00:31:22.215Z,1007.52
2016-10-17T00:32:32.498Z,1007.53
2016-10-17T00:33:42.160Z,1007.49
2016-10-17T00:34:52.138Z,1007.47
2016-10-17T00:36:02.435Z,1007.45
2016-10-17T00:37:12.725Z,1007.51
2016-10-17T00:38:23.014Z,1007.53
2016-10-17T00:39:33.294Z,1007.54
2016-10-17T00:40:43.600Z,1007.57
2016-10-17T00:41:53.597Z,1007.56
2016-10-17T00:43:03.883Z,1007.59
2016-10-17T00:44:13.567Z,1007.62
2016-10-17T00:45:23.897Z,1007.6
2016-10-17T00:46:33.260Z,1007.57
2016-10-17T00:47:43.282Z,1007.57
2016-10-17T00:48:53.563Z,1007.58
2016-10-17T00:50:03.839Z,1007.59
2016-10-17T00:51:13.816Z,1007.58
2016-10-17T00:52:23.789Z,1007.57
2016-10-17T00:53:34.067Z,1007.55
2016-10-17T00:54:44.041Z,1007.56
2016-10-17T00:55:54.342Z,1007.5
2016-10-17T00:57:04.323Z,1007.49
2016-10-17T00:58:14.598Z,1007.49
2016-10-17T00:59:24.573Z,1007.45
2016-10-17T01:00:34.873Z,1007.42
2016-10-17T01:01:44.850Z,1007.48
2016-10-17T01:02:55.142Z,1007.46
2016-10-17T01:04:05.119Z,1007.44
2016-10-17T01:05:15.396Z,1007.42
2016-10-17T01:06:25.412Z,1007.45
2016-10-17T01:07:35.410Z,1007.39
2016-10-17T01:08:45.712Z,1007.39
2016-10-17T01:09:55.989Z,1007.42
2016-10-17T01:11:06.295Z,1007.43
2016-10-17T01:12:15.972Z,1007.38
2016-10-17T01:13:25.959Z,1007.42
2016-10-17T01:14:36.231Z,1007.38
2016-10-17T01:15:46.213Z,1007.41
2016-10-17T01:16:56.204Z,1007.44
2016-10-17T01:18:06.482Z,1007.43
2016-10-17T01:19:16.454Z,1007.44
2016-10-17T01:20:26.731Z,1007.4
2016-10-17T01:21:37.032Z,1007.4
2016-10-17T01:22:46.704Z,1007.41
2016-10-17T01:23:56.996Z,1007.39
2016-10-17T01:25:06.973Z,1007.37
2016-10-17T01:26:16.964Z,1007.28
2016-10-17T01:27:26.635Z,1007.25
2016-10-17T01:28:36.608Z,1007.32
2016-10-17T01:29:46.929Z,1007.31
2016-10-17T01:30:57.211Z,1007.34
2016-10-17T01:32:07.184Z,1007.37
2016-10-17T01:33:17.465Z,1007.37
2016-10-17T01:34:27.445Z,1007.39
2016-10-17T01:35:37.739Z,1007.4
2016-10-17T01:36:48.041Z,1007.42
2016-10-17T01:37:58.332Z,1007.4
2016-10-17T01:39:08.623Z,1007.38
2016-10-17T01:40:18.915Z,1007.36
2016-10-17T01:41:28.897Z,1007.44
2016-10-17T01:42:38.873Z,1007.43
2016-10-17T01:43:49.160Z,1007.38
2016-10-17T01:44:59.436Z,1007.36
2016-10-17T01:46:09.724Z,1007.36
2016-10-17T01:47:20.026Z,1007.33
2016-10-17T01:48:30.000Z,1007.37
2016-10-17T01:49:40.289Z,1007.35
2016-10-17T01:50:50.274Z,1007.37
2016-10-17T01:52:00.556Z,1007.35
2016-10-17T01:53:10.862Z,1007.39
2016-10-17T01:54:21.144Z,1007.43
2016-10-17T01:55:31.447Z,1007.45
2016-10-17T01:56:41.735Z,1007.45
2016-10-17T01:57:51.711Z,1007.52
2016-10-17T01:59:01.996Z,1007.42
2016-10-17T02:00:11.984Z,1007.5
2016-10-17T02:01:22.290Z,1007.49
2016-10-17T02:02:32.276Z,1007.46
2016-10-17T02:03:42.249Z,1007.47
2016-10-17T02:04:52.535Z,1007.45
2016-10-17T02:06:02.827Z,1007.51
2016-10-17T02:07:13.140Z,1007.51
2016-10-17T02:08:23.127Z,1007.54
2016-10-17T02:09:32.492Z,1007.61
2016-10-17T02:10:42.779Z,1007.58
2016-10-17T02:11:53.070Z,1007.62
2016-10-17T02:13:03.053Z,1007.62
2016-10-17T02:14:13.361Z,1007.67
2016-10-17T02:15:23.651Z,1007.65
2016-10-17T02:16:33.941Z,1007.68
2016-10-17T02:17:44.244Z,1007.65
2016-10-17T02:18:54.230Z,1007.63
2016-10-17T02:20:04.514Z,1007.66
2016-10-17T02:21:14.831Z,1007.63
2016-10-17T02:22:25.121Z,1007.66
2016-10-17T02:23:35.318Z,1007.65
2016-10-17T02:24:45.328Z,1007.66
2016-10-17T02:25:55.316Z,1007.66
2016-10-17T02:27:05.596Z,1007.63
2016-10-17T02:28:15.881Z,1007.65
2016-10-17T02:29:25.852Z,1007.62
2016-10-17T02:30:36.136Z,1007.6
2016-10-17T02:31:46.411Z,1007.56
2016-10-17T02:32:56.692Z,1007.56
2016-10-17T02:34:06.680Z,1007.55
2016-10-17T02:35:16.342Z,1007.57
2016-10-17T02:36:26.318Z,1007.56
2016-10-17T02:37:36.043Z,1007.61
2016-10-17T02:38:46.323Z,1007.58
2016-10-17T02:39:56.613Z,1007.58
2016-10-17T02:41:06.915Z,1007.58
2016-10-17T02:42:17.206Z,1007.56
2016-10-17T02:43:27.499Z,1007.57
2016-10-17T02:44:37.485Z,1007.57
2016-10-17T02:45:47.780Z,1007.58
2016-10-17T02:46:58.060Z,1007.6
2016-10-17T02:48:08.041Z,1007.62
2016-10-17T02:49:18.333Z,1007.57
2016-10-17T02:50:28.619Z,1007.55
2016-10-17T02:51:38.597Z,1007.51
2016-10-17T02:52:48.579Z,1007.52
2016-10-17T02:53:58.866Z,1007.54
2016-10-17T02:55:08.842Z,1007.59
2016-10-17T02:56:19.128Z,1007.58
2016-10-17T02:57:29.421Z,1007.6
2016-10-17T02:58:39.398Z,1007.58
2016-10-17T02:59:49.374Z,1007.55
2016-10-17T03:00:59.350Z,1007.61
2016-10-17T03:33:04.804Z,1007.59
2016-10-17T03:34:14.479Z,1007.59
2016-10-17T03:35:24.439Z,1007.64
2016-10-17T03:36:34.705Z,1007.6
2016-10-17T03:37:44.991Z,1007.59
2016-10-17T03:38:54.966Z,1007.64
2016-10-17T03:40:05.265Z,1007.65
2016-10-17T03:41:15.548Z,1007.65
2016-10-17T03:42:25.520Z,1007.7
2016-10-17T03:43:35.501Z,1007.68
2016-10-17T03:44:45.160Z,1007.72
2016-10-17T03:45:55.146Z,1007.72
2016-10-17T03:47:05.447Z,1007.72
2016-10-17T03:48:15.129Z,1007.65
2016-10-17T03:49:25.426Z,1007.68
2016-10-17T03:50:35.402Z,1007.62
2016-10-17T03:51:45.695Z,1007.63
2016-10-17T03:52:55.689Z,1007.65
2016-10-17T03:54:05.983Z,1007.66
2016-10-17T03:55:16.285Z,1007.62
2016-10-17T03:56:26.585Z,1007.63
2016-10-17T03:57:36.565Z,1007.59
2016-10-17T03:58:46.215Z,1007.63
2016-10-17T03:59:56.216Z,1007.67
2016-10-17T04:01:06.493Z,1007.71
2016-10-17T04:02:16.785Z,1007.71
2016-10-17T04:03:26.809Z,1007.69
2016-10-17T04:04:36.800Z,1007.7
2016-10-17T04:05:47.084Z,1007.71
2016-10-17T04:06:57.395Z,1007.75
2016-10-17T04:08:07.373Z,1007.72
2016-10-17T04:09:17.650Z,1007.77
2016-10-17T04:10:27.935Z,1007.74
2016-10-17T04:11:37.908Z,1007.74
2016-10-17T04:12:47.890Z,1007.75
2016-10-17T04:13:58.172Z,1007.71
2016-10-17T04:15:08.165Z,1007.71
2016-10-17T04:16:18.130Z,1007.73
2016-10-17T04:17:28.412Z,1007.72
2016-10-17T04:18:38.705Z,1007.76
2016-10-17T04:19:48.992Z,1007.74
2016-10-17T04:20:58.966Z,1007.72
2016-10-17T04:22:08.959Z,1007.76
2016-10-17T04:23:18.931Z,1007.72
2016-10-17T04:24:29.241Z,1007.73
2016-10-17T04:25:39.520Z,1007.76
2016-10-17T04:26:49.499Z,1007.72
2016-10-17T04:27:59.487Z,1007.75
2016-10-17T04:29:09.478Z,1007.8
2016-10-17T04:30:19.481Z,1007.76
2016-10-17T04:31:29.767Z,1007.75
2016-10-17T04:32:40.060Z,1007.72
2016-10-17T04:33:50.345Z,1007.71
2016-10-17T04:35:00.323Z,1007.77
2016-10-17T04:36:09.999Z,1007.78
2016-10-17T04:37:20.292Z,1007.79
2016-10-17T04:38:30.583Z,1007.86
2016-10-17T04:39:40.875Z,1007.87
2016-10-17T04:40:50.857Z,1007.88
2016-10-17T04:42:01.162Z,1007.91
2016-10-17T04:43:11.461Z,1007.92
2016-10-17T04:44:21.436Z,1007.93
2016-10-17T04:45:31.737Z,1007.9
2016-10-17T04:46:41.720Z,1007.91
2016-10-17T04:47:51.696Z,1007.9
2016-10-17T04:49:01.702Z,1007.88
2016-10-17T04:50:11.979Z,1007.89
2016-10-17T04:51:21.651Z,1007.91
2016-10-17T04:52:31.326Z,1007.93
2016-10-17T04:53:41.604Z,1007.93
2016-10-17T04:54:51.901Z,1007.98
2016-10-17T04:56:01.872Z,1008.02
2016-10-17T04:57:12.149Z,1008.01
2016-10-17T04:58:22.451Z,1007.96
2016-10-17T04:59:32.742Z,1007.98
2016-10-17T05:00:43.028Z,1007.93
2016-10-17T05:01:53.321Z,1007.9
2016-10-17T05:03:03.619Z,1007.89
2016-10-17T05:04:13.617Z,1007.9
2016-10-17T05:05:23.907Z,1007.93
2016-10-17T05:06:33.893Z,1007.98
2016-10-17T05:07:43.859Z,1007.94
2016-10-17T05:08:53.830Z,1007.92
2016-10-17T05:10:03.822Z,1007.9
2016-10-17T05:11:13.812Z,1007.89
2016-10-17T05:12:23.775Z,1007.85
2016-10-17T05:13:34.057Z,1007.84
2016-10-17T05:14:44.348Z,1007.85
2016-10-17T05:15:54.010Z,1007.86
2016-10-17T05:17:03.991Z,1007.82
2016-10-17T05:18:14.279Z,1007.82
2016-10-17T05:19:24.259Z,1007.84
2016-10-17T05:20:34.537Z,1007.9
2016-10-17T05:21:44.824Z,1007.9
2016-10-17T05:22:55.115Z,1007.9
2016-10-17T05:24:05.105Z,1007.89
2016-10-17T05:25:15.088Z,1007.86
2016-10-17T05:26:25.069Z,1007.9
2016-10-17T05:27:35.363Z,1007.9
2016-10-17T05:28:45.345Z,1007.9
2016-10-17T05:29:55.332Z,1007.89
2016-10-17T05:31:05.341Z,1007.91
2016-10-17T05:32:15.013Z,1007.89
2016-10-17T05:33:25.310Z,1007.9
2016-10-17T05:34:35.312Z,1007.91
2016-10-17T05:35:45.296Z,1007.87
2016-10-17T05:36:55.599Z,1007.86
2016-10-17T05:38:05.882Z,1007.85
2016-10-17T05:39:15.543Z,1007.88
2016-10-17T05:40:25.854Z,1007.9
2016-10-17T05:41:35.845Z,1007.93
2016-10-17T05:42:45.833Z,1007.93
2016-10-17T05:43:56.142Z,1007.96
2016-10-17T05:45:06.433Z,1007.94
2016-10-17T05:46:16.453Z,1007.96
2016-10-17T05:47:26.433Z,1007.98
2016-10-17T05:48:36.106Z,1008.01
2016-10-17T05:49:46.393Z,1008.01
2016-10-17T05:50:56.674Z,1008.06
2016-10-17T05:52:06.666Z,1008.06
2016-10-17T05:53:16.943Z,1008.12
2016-10-17T05:54:26.612Z,1008.11
2016-10-17T05:55:36.585Z,1008.13
2016-10-17T05:56:45.952Z,1008.15
2016-10-17T05:57:56.249Z,1008.15
2016-10-17T05:59:06.229Z,1008.17
2016-10-17T06:00:16.517Z,1008.24
2016-10-17T06:01:26.807Z,1008.29
2016-10-17T06:02:36.799Z,1008.35
2016-10-17T06:03:46.489Z,1008.33
2016-10-17T06:04:56.471Z,1008.34
2016-10-17T06:06:06.763Z,1008.36
2016-10-17T06:07:17.059Z,1008.33
2016-10-17T06:08:27.056Z,1008.31
2016-10-17T06:09:37.028Z,1008.26
2016-10-17T06:10:47.004Z,1008.24
2016-10-17T06:11:57.307Z,1008.3
2016-10-17T06:13:07.289Z,1008.29
2016-10-17T06:14:17.279Z,1008.29
2016-10-17T06:15:27.567Z,1008.36
2016-10-17T06:16:37.553Z,1008.34
2016-10-17T06:17:47.520Z,1008.32
2016-10-17T06:18:57.506Z,1008.29
2016-10-17T06:20:07.807Z,1008.29
2016-10-17T06:21:17.796Z,1008.27
2016-10-17T06:22:27.771Z,1008.31
2016-10-17T06:23:38.048Z,1008.33
2016-10-17T06:24:48.364Z,1008.31
2016-10-17T06:25:58.647Z,1008.33
2016-10-17T06:27:08.628Z,1008.34
2016-10-17T06:28:17.983Z,1008.32
2016-10-17T06:29:28.271Z,1008.3
2016-10-17T06:30:38.253Z,1008.33
2016-10-17T06:31:47.930Z,1008.34
2016-10-17T06:32:57.931Z,1008.32
2016-10-17T06:34:08.237Z,1008.36
2016-10-17T06:35:17.909Z,1008.38
2016-10-17T06:36:28.196Z,1008.35
2016-10-17T06:37:38.471Z,1008.38
2016-10-17T06:38:48.774Z,1008.39
2016-10-17T06:39:58.440Z,1008.38
2016-10-17T06:41:08.413Z,1008.41
2016-10-17T06:42:18.699Z,1008.38
2016-10-17T06:43:28.676Z,1008.39
2016-10-17T06:44:38.662Z,1008.41
2016-10-17T06:45:48.637Z,1008.39
2016-10-17T06:46:58.931Z,1008.4
2016-10-17T06:48:09.227Z,1008.36
2016-10-17T06:49:19.206Z,1008.42
2016-10-17T06:50:29.500Z,1008.46
2016-10-17T06:51:39.818Z,1008.44
2016-10-17T06:52:50.100Z,1008.45
2016-10-17T06:54:00.088Z,1008.42
2016-10-17T06:55:10.388Z,1008.47
2016-10-17T06:56:20.674Z,1008.44
2016-10-17T06:57:30.655Z,1008.47
2016-10-17T06:58:40.967Z,1008.5
2016-10-17T06:59:51.334Z,1008.51
2016-10-17T07:01:01.005Z,1008.52
2016-10-17T07:02:11.298Z,1008.51
2016-10-17T07:03:21.575Z,1008.51
2016-10-17T07:04:31.547Z,1008.55
2016-10-17T07:05:41.840Z,1008.6
2016-10-17T07:06:52.126Z,1008.6
2016-10-17T07:08:02.411Z,1008.62
2016-10-17T07:09:12.398Z,1008.62
2016-10-17T07:10:22.382Z,1008.62
2016-10-17T07:11:32.820Z,1008.62
2016-10-17T07:12:43.126Z,1008.64
2016-10-17T07:13:53.431Z,1008.69
2016-10-17T07:15:03.416Z,1008.75
2016-10-17T07:16:13.116Z,1008.74
2016-10-17T07:17:23.399Z,1008.73
2016-10-17T07:18:33.705Z,1008.78
2016-10-17T07:19:43.715Z,1008.78
2016-10-17T07:20:53.682Z,1008.86
2016-10-17T07:22:03.361Z,1008.88
2016-10-17T07:23:13.657Z,1008.89
2016-10-17T07:24:23.941Z,1008.86
2016-10-17T07:25:34.237Z,1008.91
2016-10-17T07:26:43.920Z,1008.89
2016-10-17T07:27:54.201Z,1008.88
2016-10-17T07:29:04.183Z,1008.85
2016-10-17T07:30:14.167Z,1008.86
2016-10-17T07:31:24.459Z,1008.86
2016-10-17T07:32:34.773Z,1008.88
2016-10-17T07:33:45.081Z,1008.84
2016-10-17T07:34:55.360Z,1008.82
2016-10-17T07:36:05.653Z,1008.82
2016-10-17T07:37:15.938Z,1008.85
2016-10-17T07:38:26.228Z,1008.86
2016-10-17T07:39:36.516Z,1008.9
2016-10-17T07:40:46.810Z,1008.9
2016-10-17T07:41:57.102Z,1008.89
2016-10-17T07:43:07.404Z,1008.9
2016-10-17T07:44:17.719Z,1008.88
2016-10-17T07:45:27.716Z,1008.86
2016-10-17T07:46:37.682Z,1008.88
2016-10-17T07:47:47.984Z,1008.87
2016-10-17T07:48:58.261Z,1008.85
2016-10-17T07:50:08.559Z,1008.83
2016-10-17T07:51:18.875Z,1008.8
2016-10-17T07:52:29.191Z,1008.81
2016-10-17T07:53:39.481Z,1008.82
2016-10-17T07:54:49.512Z,1008.88
2016-10-17T07:55:59.829Z,1008.92
2016-10-17T07:57:10.123Z,1008.91
2016-10-17T07:58:20.422Z,1008.93
2016-10-17T08:00:39.484Z,1008.92
2016-10-17T08:01:49.776Z,1008.96
2016-10-17T08:02:59.755Z,1008.94
2016-10-17T08:04:10.034Z,1008.91
2016-10-17T08:05:20.320Z,1008.87
2016-10-17T08:06:30.612Z,1008.89
2016-10-17T08:07:40.884Z,1008.88
2016-10-17T08:08:51.181Z,1008.97
2016-10-17T08:10:01.161Z,1008.95
2016-10-17T08:11:10.832Z,1009
2016-10-17T08:12:20.807Z,1008.99
2016-10-17T08:13:31.092Z,1009.02
2016-10-17T08:14:41.369Z,1008.99
2016-10-17T08:15:51.659Z,1008.98
2016-10-17T08:17:01.318Z,1009.01
2016-10-17T08:18:11.617Z,1009
2016-10-17T08:19:21.600Z,1009.02
2016-10-17T08:20:31.892Z,1009.02
2016-10-17T08:21:41.865Z,1009.07
2016-10-17T08:22:52.151Z,1009.13
2016-10-17T08:24:02.438Z,1009.14
2016-10-17T08:25:12.409Z,1009.17
2016-10-17T08:26:22.689Z,1009.17
2016-10-17T08:27:32.985Z,1009.12
2016-10-17T08:28:42.959Z,1009.13
2016-10-17T08:29:53.240Z,1009.17
2016-10-17T08:31:02.953Z,1009.12
2016-10-17T08:32:13.285Z,1009.17
2016-10-17T08:33:23.556Z,1009.15
2016-10-17T08:34:33.844Z,1009.15
2016-10-17T08:35:44.130Z,1009.19
2016-10-17T08:36:54.417Z,1009.19
2016-10-17T08:38:04.391Z,1009.19
2016-10-17T08:39:14.722Z,1009.17
2016-10-17T08:40:25.007Z,1009.2
2016-10-17T08:41:35.314Z,1009.2
2016-10-17T08:42:44.990Z,1009.17
2016-10-17T08:43:55.286Z,1009.17
2016-10-17T08:45:05.569Z,1009.2
2016-10-17T08:46:15.864Z,1009.17
2016-10-17T08:47:26.156Z,1009.14
2016-10-17T08:48:36.434Z,1009.16
2016-10-17T08:49:46.720Z,1009.17
2016-10-17T08:50:57.007Z,1009.14
2016-10-17T08:52:07.281Z,1009.1
2016-10-17T08:53:17.805Z,1009.1
2016-10-17T08:54:27.807Z,1009.1
2016-10-17T08:55:38.098Z,1009.04
2016-10-17T08:56:48.413Z,1009.07
2016-10-17T08:57:58.709Z,1009.09
2016-10-17T08:59:08.695Z,1009.06
2016-10-17T09:00:18.987Z,1009.07
2016-10-17T09:01:28.962Z,1009.06
2016-10-17T09:02:39.253Z,1009.05
2016-10-17T09:03:49.594Z,1009.05
2016-10-17T09:04:59.897Z,1009.13
2016-10-17T09:06:10.201Z,1009.14
2016-10-17T09:07:20.531Z,1009.17
2016-10-17T09:08:30.546Z,1009.14
2016-10-17T09:09:40.541Z,1009.16
2016-10-17T09:10:50.815Z,1009.21
2016-10-17T09:12:00.794Z,1009.22
2016-10-17T09:13:11.080Z,1009.23
2016-10-17T09:14:21.375Z,1009.22
2016-10-17T09:15:31.668Z,1009.24
2016-10-17T09:16:41.650Z,1009.23
2016-10-17T09:17:51.640Z,1009.24
2016-10-17T09:19:01.918Z,1009.26
2016-10-17T09:20:12.229Z,1009.24
2016-10-17T09:21:22.211Z,1009.19
2016-10-17T09:22:32.512Z,1009.16
2016-10-17T09:23:42.516Z,1009.21
2016-10-17T09:24:52.837Z,1009.16
2016-10-17T09:26:03.137Z,1009.18
2016-10-17T09:27:13.411Z,1009.1
2016-10-17T09:28:23.389Z,1009.14
2016-10-17T09:29:33.358Z,1009.17
2016-10-17T09:30:43.049Z,1009.15
2016-10-17T09:31:53.332Z,1009.19
2016-10-17T09:33:03.314Z,1009.19
2016-10-17T09:34:13.614Z,1009.18
2016-10-17T09:35:23.592Z,1009.19
2016-10-17T09:36:33.875Z,1009.19
2016-10-17T09:37:44.175Z,1009.21
2016-10-17T09:38:54.462Z,1009.21
2016-10-17T09:40:04.438Z,1009.18
2016-10-17T09:41:14.739Z,1009.19
2016-10-17T09:42:25.086Z,1009.19
2016-10-17T09:43:35.062Z,1009.17
2016-10-17T09:44:45.040Z,1009.18
2016-10-17T09:45:55.013Z,1009.17
2016-10-17T09:47:05.300Z,1009.17
2016-10-17T09:48:15.580Z,1009.15
2016-10-17T09:49:25.258Z,1009.11
2016-10-17T09:50:34.610Z,1009.13
2016-10-17T09:51:44.893Z,1009.12
2016-10-17T09:52:54.867Z,1009.13
2016-10-17T09:54:05.142Z,1009.13
2016-10-17T09:55:15.436Z,1009.13
2016-10-17T09:56:25.133Z,1009.12
2016-10-17T09:57:35.429Z,1009.14
2016-10-17T09:58:45.396Z,1009.14
2016-10-17T09:59:55.377Z,1009.15
2016-10-17T10:01:05.679Z,1009.15
2016-10-17T10:02:15.901Z,1009.16
2016-10-17T10:03:30.732Z,1009.13
2016-10-17T10:04:47.116Z,1009.13
2016-10-17T10:06:00.267Z,1009.09
2016-10-17T10:07:10.910Z,1009.06
2016-10-17T10:08:20.815Z,1009.05
2016-10-17T10:09:31.344Z,1009.01
2016-10-17T10:10:41.654Z,1009.01
2016-10-17T10:11:51.703Z,1008.98
2016-10-17T10:13:01.441Z,1008.99
2016-10-17T10:14:11.464Z,1008.97
2016-10-17T10:15:21.831Z,1008.98
2016-10-17T10:16:31.858Z,1008.95
2016-10-17T10:17:42.694Z,1008.96
2016-10-17T10:18:52.789Z,1008.97
2016-10-17T10:20:04.420Z,1009.01
2016-10-17T10:21:14.928Z,1008.98
2016-10-17T10:22:25.294Z,1008.97
2016-10-17T10:23:34.994Z,1008.96
2016-10-17T10:24:45.354Z,1008.92
2016-10-17T10:25:55.337Z,1008.93
2016-10-17T10:27:06.381Z,1008.94
2016-10-17T10:28:25.084Z,1008.95
2016-10-17T10:29:40.595Z,1008.9
2016-10-17T10:30:52.059Z,1008.87
2016-10-17T10:32:03.144Z,1008.85
2016-10-17T10:33:13.141Z,1008.81
2016-10-17T10:34:23.163Z,1008.76
2016-10-17T10:35:33.474Z,1008.77
2016-10-17T10:36:43.452Z,1008.77
2016-10-17T10:37:53.133Z,1008.77
2016-10-17T10:39:03.375Z,1008.75
2016-10-17T10:40:13.652Z,1008.76
2016-10-17T10:41:23.973Z,1008.76
2016-10-17T10:42:33.966Z,1008.76
2016-10-17T10:43:44.081Z,1008.76
2016-10-17T10:44:54.080Z,1008.73
2016-10-17T10:46:04.071Z,1008.69
2016-10-17T10:47:13.744Z,1008.69
2016-10-17T10:48:24.029Z,1008.67
2016-10-17T10:49:33.704Z,1008.64
2016-10-17T10:50:43.397Z,1008.65
2016-10-17T10:51:53.063Z,1008.64
2016-10-17T10:53:03.386Z,1008.67
2016-10-17T10:54:13.688Z,1008.61
2016-10-17T10:55:24.015Z,1008.66
2016-10-17T10:56:34.002Z,1008.63
2016-10-17T10:57:44.286Z,1008.66
2016-10-17T10:58:54.587Z,1008.66
2016-10-17T11:00:04.879Z,1008.63
2016-10-17T11:01:15.197Z,1008.62
2016-10-17T11:02:24.903Z,1008.57
2016-10-17T11:03:35.202Z,1008.56
2016-10-17T11:04:45.502Z,1008.58
2016-10-17T11:05:55.800Z,1008.59
2016-10-17T11:07:05.801Z,1008.59
2016-10-17T11:08:16.170Z,1008.56
2016-10-17T11:09:26.473Z,1008.58
2016-10-17T11:10:36.763Z,1008.54
2016-10-17T11:11:47.077Z,1008.49
2016-10-17T11:12:57.370Z,1008.48
2016-10-17T11:14:07.044Z,1008.48
2016-10-17T11:15:17.360Z,1008.44
2016-10-17T11:16:27.653Z,1008.45
2016-10-17T11:17:37.648Z,1008.43
2016-10-17T11:18:47.998Z,1008.41
2016-10-17T11:19:58.297Z,1008.36
2016-10-17T11:21:08.591Z,1008.39
2016-10-17T11:22:18.610Z,1008.37
2016-10-17T11:23:28.592Z,1008.36
2016-10-17T11:24:38.579Z,1008.34
2016-10-17T11:25:48.570Z,1008.33
2016-10-17T11:26:58.608Z,1008.35
2016-10-17T11:28:08.615Z,1008.33
2016-10-17T11:29:18.617Z,1008.31
2016-10-17T11:30:28.608Z,1008.29
2016-10-17T11:31:38.609Z,1008.31
2016-10-17T11:32:48.894Z,1008.31
2016-10-17T11:33:58.885Z,1008.25
2016-10-17T11:35:09.242Z,1008.27
2016-10-17T11:36:19.215Z,1008.24
2016-10-17T11:37:29.266Z,1008.23
2016-10-17T11:38:39.492Z,1008.21
2016-10-17T11:39:49.790Z,1008.21
2016-10-17T11:40:59.826Z,1008.22
2016-10-17T11:42:09.822Z,1008.2
2016-10-17T11:43:20.114Z,1008.2
2016-10-17T11:44:30.118Z,1008.19
2016-10-17T11:45:40.409Z,1008.19
2016-10-17T11:46:50.703Z,1008.18
2016-10-17T11:48:01.031Z,1008.14
2016-10-17T11:49:11.012Z,1008.16
2016-10-17T11:50:20.993Z,1008.12
2016-10-17T11:51:30.977Z,1008.11
2016-10-17T11:52:40.966Z,1008.08
2016-10-17T11:53:51.268Z,1008.09
2016-10-17T11:55:01.256Z,1008.07
2016-10-17T11:56:11.541Z,1008.11
2016-10-17T11:57:21.545Z,1008.08
2016-10-17T11:58:31.846Z,1008.08
2016-10-17T11:59:41.844Z,1008.13
2016-10-17T12:00:51.824Z,1008.08
2016-10-17T12:02:01.836Z,1008.11
2016-10-17T12:03:11.836Z,1008.09
2016-10-17T12:04:21.858Z,1008.07
2016-10-17T12:05:31.552Z,1008.07
2016-10-17T12:06:41.549Z,1008.02
2016-10-17T12:07:51.531Z,1008.04
2016-10-17T12:09:01.820Z,1008.06
2016-10-17T12:10:12.136Z,1008.02
2016-10-17T12:11:22.128Z,1008.05
2016-10-17T12:12:32.105Z,1008.03
2016-10-17T12:13:42.406Z,1008.04
2016-10-17T12:14:52.712Z,1008.01
2016-10-17T12:16:03.044Z,1008.04
2016-10-17T12:17:13.336Z,1008.03
2016-10-17T12:18:23.619Z,1008.04
2016-10-17T12:19:33.620Z,1008
2016-10-17T12:20:43.908Z,1008.02
2016-10-17T12:21:53.600Z,1007.99
2016-10-17T12:23:03.595Z,1007.98
2016-10-17T12:24:13.904Z,1008.01
2016-10-17T12:25:23.908Z,1008.02
2016-10-17T12:26:34.241Z,1008.01
2016-10-17T12:27:44.560Z,1007.97
2016-10-17T12:28:54.559Z,1007.96
2016-10-17T12:30:04.562Z,1007.96
2016-10-17T12:31:14.866Z,1007.92
2016-10-17T12:32:25.178Z,1007.86
2016-10-17T12:33:35.463Z,1007.88
2016-10-17T12:34:45.435Z,1007.9
2016-10-17T12:35:55.730Z,1007.86
2016-10-17T12:37:06.033Z,1007.84
2016-10-17T12:38:16.346Z,1007.85
2016-10-17T12:39:26.327Z,1007.76
2016-10-17T12:40:36.020Z,1007.8
2016-10-17T12:41:46.311Z,1007.79
2016-10-17T12:42:56.290Z,1007.84
2016-10-17T12:44:06.815Z,1007.84
2016-10-17T12:45:17.115Z,1007.81
2016-10-17T12:46:26.809Z,1007.8
2016-10-17T12:47:37.134Z,1007.82
2016-10-17T12:48:47.135Z,1007.78
2016-10-17T12:49:57.111Z,1007.81
2016-10-17T12:51:07.100Z,1007.79
2016-10-17T12:52:17.391Z,1007.81
2016-10-17T12:53:27.088Z,1007.78
2016-10-17T12:54:37.080Z,1007.77
2016-10-17T12:55:47.065Z,1007.73
2016-10-17T12:56:57.064Z,1007.7
2016-10-17T12:58:07.102Z,1007.69
2016-10-17T12:59:17.155Z,1007.71
2016-10-17T13:00:27.484Z,1007.73
2016-10-17T13:01:38.010Z,1007.74
2016-10-17T13:02:47.726Z,1007.7
2016-10-17T13:03:57.710Z,1007.7
2016-10-17T13:05:07.703Z,1007.68
2016-10-17T13:06:17.710Z,1007.67
2016-10-17T13:07:28.012Z,1007.62
2016-10-17T13:08:38.320Z,1007.58
2016-10-17T13:09:48.326Z,1007.62
2016-10-17T13:10:58.324Z,1007.6
2016-10-17T13:12:08.613Z,1007.57
2016-10-17T13:13:18.930Z,1007.48
2016-10-17T13:14:29.227Z,1007.49
2016-10-17T13:15:39.225Z,1007.49
2016-10-17T13:16:49.194Z,1007.5
2016-10-17T13:17:59.494Z,1007.45
2016-10-17T13:19:09.191Z,1007.42
2016-10-17T13:20:19.181Z,1007.44
2016-10-17T13:21:28.854Z,1007.47
2016-10-17T13:22:38.230Z,1007.4
2016-10-17T13:23:48.206Z,1007.39
2016-10-17T13:24:58.204Z,1007.37
2016-10-17T13:26:08.533Z,1007.36
2016-10-17T13:27:18.859Z,1007.34
2016-10-17T13:28:29.174Z,1007.31
2016-10-17T13:29:39.167Z,1007.31
2016-10-17T13:30:49.158Z,1007.26
2016-10-17T13:31:59.470Z,1007.21
2016-10-17T13:33:09.775Z,1007.24
2016-10-17T13:34:19.774Z,1007.16
2016-10-17T13:35:29.780Z,1007.18
2016-10-17T13:36:39.772Z,1007.18
2016-10-17T13:37:50.070Z,1007.17
2016-10-17T13:39:00.371Z,1007.16
2016-10-17T13:40:10.053Z,1007.19
2016-10-17T13:41:20.367Z,1007.18
2016-10-17T13:42:30.073Z,1007.18
2016-10-17T13:43:40.062Z,1007.17
2016-10-17T13:44:50.065Z,1007.18
2016-10-17T13:46:00.361Z,1007.17
2016-10-17T13:47:10.690Z,1007.15
2016-10-17T13:48:20.373Z,1007.11
2016-10-17T13:49:30.418Z,1007.13
2016-10-17T13:50:40.441Z,1007.09
2016-10-17T13:51:50.732Z,1007.08
2016-10-17T13:53:00.718Z,1007.05
2016-10-17T13:54:11.051Z,1007.05
2016-10-17T13:55:21.077Z,1007.11
2016-10-17T13:56:31.420Z,1007.08
2016-10-17T13:57:41.447Z,1007.08
2016-10-17T13:58:51.443Z,1007.11
2016-10-17T14:00:01.732Z,1007.12
2016-10-17T14:01:12.094Z,1007.11
2016-10-17T14:02:22.088Z,1007.08
2016-10-17T14:03:32.396Z,1007.07
2016-10-17T14:04:42.710Z,1007.08
2016-10-17T14:05:53.017Z,1007.07
2016-10-17T14:07:03.328Z,1007.06
2016-10-17T14:08:13.623Z,1007.04
2016-10-17T14:09:23.623Z,1007
2016-10-17T14:10:33.930Z,1007.07
2016-10-17T14:11:44.240Z,1007.05
2016-10-17T14:12:54.223Z,1007.09
2016-10-17T14:14:04.238Z,1007.05
2016-10-17T14:15:14.234Z,1007.11
2016-10-17T14:16:24.257Z,1007.09
2016-10-17T14:17:34.549Z,1007.07
2016-10-17T14:18:44.585Z,1007.11
2016-10-17T14:19:54.567Z,1007.09
2016-10-17T14:21:04.569Z,1007.08
2016-10-17T14:22:14.882Z,1007.1
2016-10-17T14:23:25.218Z,1007.11
2016-10-17T14:24:35.200Z,1007.08
2016-10-17T14:25:45.495Z,1007.06
2016-10-17T14:26:55.559Z,1007.04
2016-10-17T14:28:05.531Z,1007.03
2016-10-17T14:29:15.834Z,1007.02
2016-10-17T14:30:26.139Z,1007.05
2016-10-17T14:31:36.430Z,1007.02
2016-10-17T14:32:46.430Z,1007.06
2016-10-17T14:33:56.765Z,1007
2016-10-17T14:35:06.740Z,1007.04
2016-10-17T14:36:16.732Z,1007.07
2016-10-17T14:37:26.738Z,1007.04
2016-10-17T14:38:36.442Z,1007.04
2016-10-17T14:39:46.858Z,1007.02
2016-10-17T14:40:56.857Z,1007.04
2016-10-17T14:42:07.172Z,1007.01
2016-10-17T14:43:17.485Z,1006.99
2016-10-17T14:44:27.803Z,1006.95